Detall de PIREP

Printer-friendly versionPDF version

[2013/03/01 19:34:00]
Flight IATA:CT1004
Pilot Number:044
Company ICAO:CAT
Aircraft Type:AT72/F
PAX:46
Departing Airport: LEBL
Destination Airport: LEZL
Alternate Airport:LEMG
Online: VATSIM
Route:LOTOS B28 VIBAS
Flight Level:F230
No Slew and time accel
No pause
Crash detect
Detect pilot in Cockpit between each 30 and 45 minutes
19:34 Zero fuel Weight: 39664 Lbs, Fuel Weight: 5473 Lbs
19:34 VATSIM:LEBL 011900Z 36005KT 9999 FEW015 SCT045 12/01 Q1012 NOSIG
19:34 VATSIM:LEZL 011900Z 17003KT CAVOK 11/06 Q1017 NOSIG
19:34 VOICE CATALONIAN / MWC 2013 BARCELONA CHARTER
19:36 Parking Brakes off
19:53 Take-off
19:53 Take off Weight: 44986 Lbs
19:53 Wind: 004º @ 003 Knots Heading: 245º
19:53 POS N41º 17´ 08´´ E002º 05´ 02´´
19:53 Gear Up: 127 Knots
19:53 Flaps:1 at 127 Knots
19:53 Flaps:0 at 138 Knots
20:08 Wind:306º@011 Knots Heading: 216º Ground Speed: 240 Knots Altitude 17644 ft
20:13 TOC
20:13 Fuel Weight: 4655 Lb
20:23 Wind:313º@026 Knots Heading: 228º Ground Speed: 280 Knots Altitude 23008 ft
20:38 Wind:301º@023 Knots Heading: 238º Ground Speed: 270 Knots Altitude 23024 ft
20:53 Wind:322º@004 Knots Heading: 232º Ground Speed: 281 Knots Altitude 23074 ft
21:08 Wind:333º@020 Knots Heading: 228º Ground Speed: 281 Knots Altitude 23041 ft
21:08 TOD
21:08 Fuel Weight: 3171 Lb
21:23 Wind:283º@008 Knots Heading: 274º Ground Speed: 242 Knots Altitude 16112 ft
21:38 Wind:278º@007 Knots Heading: 272º Ground Speed: 183 Knots Altitude 6236 ft
21:43 Gear Down: 168 Knots
21:43 Flaps:1 at 149 Knots
21:44 Flaps:2 at 139 Knots
21:47 TouchDown:Rate -95 ft/min Speed: 99 Knots
21:48 VATSIM:LEZL 012130Z 26002KT CAVOK 09/05 Q1018 NOSIG
21:48 Land
21:48 Wind:265º@003 Knots
21:48 Heading: 269º
21:48 Flight Duration: 01:55
21:48 Landing Weight: 42310 Lbs
21:48 POS N37º 25´ 04´´ W005º 53´ 41´´
21:49 Parking brakes on
21:49 Block to Block Duration: 02:13
21:49 Final Fuel: 2636 Lbls
21:49 Spent Fuel: 2837 Lbls
21:49 Flight Length: 470 NM
21:49 TOD Land Length: 140 NM

Exportar CSV

Powered by Drupal - Modified by Danger4k